sensor_id;sensor_type;location;lat;lon;timestamp;pressure;altitude;pressure_sealevel;temperature;humidity
33286;BME280;19656;50.096;20.014;2022-08-07T00:01:01;99735.50;;;20.03;59.22
33286;BME280;19656;50.096;20.014;2022-08-07T00:06:24;99734.95;;;20.03;59.21
33286;BME280;19656;50.096;20.014;2022-08-07T00:11:34;99732.83;;;20.01;59.23
33286;BME280;19656;50.096;20.014;2022-08-07T00:16:59;99728.64;;;19.99;59.46
33286;BME280;19656;50.096;20.014;2022-08-07T00:22:04;99727.95;;;19.97;59.55
33286;BME280;19656;50.096;20.014;2022-08-07T00:27:07;99733.04;;;19.94;59.61
33286;BME280;19656;50.096;20.014;2022-08-07T00:32:12;99734.88;;;19.92;59.84
33286;BME280;19656;50.096;20.014;2022-08-07T00:37:16;99737.13;;;19.91;59.75
33286;BME280;19656;50.096;20.014;2022-08-07T00:42:24;99731.32;;;19.93;59.87
33286;BME280;19656;50.096;20.014;2022-08-07T00:47:31;99739.02;;;19.94;59.91
33286;BME280;19656;50.096;20.014;2022-08-07T00:52:54;99750.32;;;19.92;59.82
33286;BME280;19656;50.096;20.014;2022-08-07T00:57:57;99756.45;;;19.88;59.78
33286;BME280;19656;50.096;20.014;2022-08-07T01:03:00;99755.88;;;19.82;59.75
33286;BME280;19656;50.096;20.014;2022-08-07T01:08:04;99749.30;;;19.76;59.77
33286;BME280;19656;50.096;20.014;2022-08-07T01:13:10;99745.10;;;19.70;59.98
33286;BME280;19656;50.096;20.014;2022-08-07T01:18:19;99744.34;;;19.65;59.88
33286;BME280;19656;50.096;20.014;2022-08-07T01:23:28;99744.63;;;19.66;60.11
33286;BME280;19656;50.096;20.014;2022-08-07T01:28:46;99742.02;;;19.68;60.13
33286;BME280;19656;50.096;20.014;2022-08-07T01:33:55;99748.21;;;19.70;60.13
33286;BME280;19656;50.096;20.014;2022-08-07T01:39:03;99743.93;;;19.71;60.21
33286;BME280;19656;50.096;20.014;2022-08-07T01:44:13;99737.02;;;19.72;60.16
33286;BME280;19656;50.096;20.014;2022-08-07T01:49:19;99734.72;;;19.71;60.16
33286;BME280;19656;50.096;20.014;2022-08-07T01:54:26;99731.90;;;19.69;60.27
33286;BME280;19656;50.096;20.014;2022-08-07T01:59:41;99735.51;;;19.67;60.23
33286;BME280;19656;50.096;20.014;2022-08-07T02:04:53;99737.42;;;19.63;60.22
33286;BME280;19656;50.096;20.014;2022-08-07T02:10:04;99737.14;;;19.65;60.31
33286;BME280;19656;50.096;20.014;2022-08-07T02:15:12;99733.97;;;19.68;60.42
33286;BME280;19656;50.096;20.014;2022-08-07T02:20:20;99732.98;;;19.69;60.48
33286;BME280;19656;50.096;20.014;2022-08-07T02:25:26;99731.08;;;19.68;60.51
33286;BME280;19656;50.096;20.014;2022-08-07T02:30:51;99736.86;;;19.66;60.60
33286;BME280;19656;50.096;20.014;2022-08-07T02:35:55;99738.91;;;19.63;60.56
33286;BME280;19656;50.096;20.014;2022-08-07T02:41:20;99737.13;;;19.60;60.71
33286;BME280;19656;50.096;20.014;2022-08-07T02:46:25;99741.27;;;19.60;60.72
33286;BME280;19656;50.096;20.014;2022-08-07T02:51:32;99742.35;;;19.60;60.67
33286;BME280;19656;50.096;20.014;2022-08-07T02:56:53;99744.94;;;19.61;60.87
33286;BME280;19656;50.096;20.014;2022-08-07T03:01:58;99743.95;;;19.62;60.87
33286;BME280;19656;50.096;20.014;2022-08-07T03:07:04;99746.40;;;19.66;61.05
33286;BME280;19656;50.096;20.014;2022-08-07T03:12:13;99741.87;;;19.66;60.97
33286;BME280;19656;50.096;20.014;2022-08-07T03:17:34;99743.66;;;19.61;60.90
33286;BME280;19656;50.096;20.014;2022-08-07T03:22:56;99746.39;;;19.61;61.05
33286;BME280;19656;50.096;20.014;2022-08-07T03:28:01;99748.02;;;19.59;60.90
33286;BME280;19656;50.096;20.014;2022-08-07T03:33:26;99746.58;;;19.57;60.80
33286;BME280;19656;50.096;20.014;2022-08-07T03:38:42;99747.10;;;19.55;60.93
33286;BME280;19656;50.096;20.014;2022-08-07T03:43:49;99746.95;;;19.55;60.92
33286;BME280;19656;50.096;20.014;2022-08-07T03:49:01;99750.83;;;19.58;60.88
33286;BME280;19656;50.096;20.014;2022-08-07T03:54:10;99753.20;;;19.59;60.79
33286;BME280;19656;50.096;20.014;2022-08-07T03:59:33;99754.34;;;19.59;60.86
33286;BME280;19656;50.096;20.014;2022-08-07T04:04:36;99761.73;;;19.59;60.80
33286;BME280;19656;50.096;20.014;2022-08-07T04:09:40;99767.36;;;19.54;60.78
33286;BME280;19656;50.096;20.014;2022-08-07T04:14:55;99768.00;;;19.61;60.95
33286;BME280;19656;50.096;20.014;2022-08-07T04:19:58;99768.02;;;19.70;61.06
33286;BME280;19656;50.096;20.014;2022-08-07T04:25:07;99767.04;;;19.75;60.96
33286;BME280;19656;50.096;20.014;2022-08-07T04:30:16;99768.83;;;20.07;62.70
33286;BME280;19656;50.096;20.014;2022-08-07T04:35:48;99766.83;;;20.63;62.57
33286;BME280;19656;50.096;20.014;2022-08-07T04:40:58;99769.15;;;21.00;61.97
33286;BME280;19656;50.096;20.014;2022-08-07T04:46:17;99770.16;;;21.26;61.43
33286;BME280;19656;50.096;20.014;2022-08-07T04:51:47;99774.11;;;21.43;60.98
33286;BME280;19656;50.096;20.014;2022-08-07T05:02:53;99780.02;;;21.68;59.96
33286;BME280;19656;50.096;20.014;2022-08-07T05:08:03;99789.92;;;21.74;59.68
33286;BME280;19656;50.096;20.014;2022-08-07T05:13:18;99791.86;;;21.79;59.33
33286;BME280;19656;50.096;20.014;2022-08-07T05:19:13;99799.81;;;21.78;59.00
33286;BME280;19656;50.096;20.014;2022-08-07T05:24:20;99795.73;;;21.72;58.75
33286;BME280;19656;50.096;20.014;2022-08-07T05:29:33;99801.02;;;21.68;58.64
33286;BME280;19656;50.096;20.014;2022-08-07T05:34:54;99798.58;;;21.72;58.72
33286;BME280;19656;50.096;20.014;2022-08-07T05:39:59;99798.21;;;21.78;58.66
33286;BME280;19656;50.096;20.014;2022-08-07T05:45:22;99810.54;;;21.72;57.99
33286;BME280;19656;50.096;20.014;2022-08-07T05:50:46;99816.59;;;21.44;57.70
33286;BME280;19656;50.096;20.014;2022-08-07T05:55:54;99815.63;;;21.32;58.06
33286;BME280;19656;50.096;20.014;2022-08-07T06:01:09;99815.47;;;21.23;58.21
33286;BME280;19656;50.096;20.014;2022-08-07T06:06:16;99816.56;;;21.23;58.26
33286;BME280;19656;50.096;20.014;2022-08-07T06:11:22;99817.17;;;21.23;58.22
33286;BME280;19656;50.096;20.014;2022-08-07T06:16:27;99815.37;;;21.23;58.22
33286;BME280;19656;50.096;20.014;2022-08-07T06:21:34;99819.52;;;21.21;58.08
33286;BME280;19656;50.096;20.014;2022-08-07T06:26:58;99819.33;;;21.13;57.87
33286;BME280;19656;50.096;20.014;2022-08-07T06:32:06;99822.65;;;21.05;57.87
33286;BME280;19656;50.096;20.014;2022-08-07T06:37:09;99821.22;;;20.97;57.82
33286;BME280;19656;50.096;20.014;2022-08-07T06:42:23;99826.43;;;20.86;57.77
33286;BME280;19656;50.096;20.014;2022-08-07T06:48:00;99825.77;;;20.81;58.16
33286;BME280;19656;50.096;20.014;2022-08-07T06:53:19;99824.32;;;20.83;58.43
33286;BME280;19656;50.096;20.014;2022-08-07T06:58:45;99831.44;;;20.86;58.56
33286;BME280;19656;50.096;20.014;2022-08-07T07:04:13;99836.20;;;20.96;58.67
33286;BME280;19656;50.096;20.014;2022-08-07T07:09:34;99838.80;;;21.08;58.49
33286;BME280;19656;50.096;20.014;2022-08-07T07:15:00;99831.25;;;21.13;58.30
33286;BME280;19656;50.096;20.014;2022-08-07T07:20:19;99830.54;;;21.17;58.26
33286;BME280;19656;50.096;20.014;2022-08-07T07:25:24;99820.83;;;21.26;58.46
33286;BME280;19656;50.096;20.014;2022-08-07T07:31:13;99824.31;;;21.31;58.24
33286;BME280;19656;50.096;20.014;2022-08-07T07:36:24;99829.40;;;21.41;57.96
33286;BME280;19656;50.096;20.014;2022-08-07T07:41:35;99825.11;;;21.48;58.08
33286;BME280;19656;50.096;20.014;2022-08-07T07:46:59;99827.67;;;21.82;59.09
33286;BME280;19656;50.096;20.014;2022-08-07T07:52:20;99825.73;;;22.11;58.61
33286;BME280;19656;50.096;20.014;2022-08-07T07:57:25;99828.97;;;22.32;58.25
33286;BME280;19656;50.096;20.014;2022-08-07T08:02:52;99828.73;;;22.54;57.94
33286;BME280;19656;50.096;20.014;2022-08-07T08:08:09;99829.57;;;22.69;57.40
33286;BME280;19656;50.096;20.014;2022-08-07T08:13:35;99824.83;;;22.71;56.58
33286;BME280;19656;50.096;20.014;2022-08-07T08:18:58;99828.88;;;22.76;56.38
33286;BME280;19656;50.096;20.014;2022-08-07T08:24:24;99819.67;;;22.81;55.73
33286;BME280;19656;50.096;20.014;2022-08-07T08:29:50;99820.39;;;22.61;54.36
33286;BME280;19656;50.096;20.014;2022-08-07T08:34:58;99822.44;;;22.50;54.73
33286;BME280;19656;50.096;20.014;2022-08-07T08:40:08;99822.82;;;22.52;54.66
33286;BME280;19656;50.096;20.014;2022-08-07T08:45:30;99819.17;;;22.59;54.57
33286;BME280;19656;50.096;20.014;2022-08-07T08:51:07;99818.70;;;22.55;54.44
33286;BME280;19656;50.096;20.014;2022-08-07T08:56:32;99825.80;;;22.60;54.21
33286;BME280;19656;50.096;20.014;2022-08-07T09:01:44;99824.44;;;22.63;54.19
33286;BME280;19656;50.096;20.014;2022-08-07T09:06:58;99822.54;;;22.85;54.61
33286;BME280;19656;50.096;20.014;2022-08-07T09:17:42;99816.13;;;23.08;53.59
33286;BME280;19656;50.096;20.014;2022-08-07T09:23:31;99809.96;;;23.13;53.51
33286;BME280;19656;50.096;20.014;2022-08-07T09:29:09;99804.60;;;23.25;53.19
33286;BME280;19656;50.096;20.014;2022-08-07T09:35:02;99794.24;;;23.41;53.27
33286;BME280;19656;50.096;20.014;2022-08-07T09:52:04;99783.65;;;23.45;52.32
33286;BME280;19656;50.096;20.014;2022-08-07T09:57:26;99775.39;;;23.50;52.31
33286;BME280;19656;50.096;20.014;2022-08-07T10:03:17;99764.83;;;23.44;51.92
33286;BME280;19656;50.096;20.014;2022-08-07T10:25:13;99754.30;;;23.24;50.98
33286;BME280;19656;50.096;20.014;2022-08-07T10:47:00;99738.33;;;23.07;50.25
33286;BME280;19656;50.096;20.014;2022-08-07T10:57:57;99730.61;;;23.01;51.13
33286;BME280;19656;50.096;20.014;2022-08-07T11:03:13;99727.98;;;23.08;51.34
33286;BME280;19656;50.096;20.014;2022-08-07T11:08:28;99724.02;;;23.04;51.01
33286;BME280;19656;50.096;20.014;2022-08-07T11:30:02;99708.16;;;22.85;50.86
33286;BME280;19656;50.096;20.014;2022-08-07T11:35:25;99704.15;;;22.95;51.29
33286;BME280;19656;50.096;20.014;2022-08-07T11:41:18;99701.77;;;22.99;51.14
33286;BME280;19656;50.096;20.014;2022-08-07T11:52:35;99690.45;;;23.22;51.05
33286;BME280;19656;50.096;20.014;2022-08-07T11:57:57;99686.36;;;23.35;51.02
33286;BME280;19656;50.096;20.014;2022-08-07T12:14:24;99668.99;;;23.64;49.81
33286;BME280;19656;50.096;20.014;2022-08-07T12:30:52;99658.06;;;24.23;48.65
33286;BME280;19656;50.096;20.014;2022-08-07T12:35:59;99657.47;;;24.20;48.10
33286;BME280;19656;50.096;20.014;2022-08-07T12:41:05;99656.24;;;24.14;47.85
33286;BME280;19656;50.096;20.014;2022-08-07T12:51:42;99651.55;;;24.17;47.66
33286;BME280;19656;50.096;20.014;2022-08-07T12:57:09;99644.94;;;24.27;47.34
33286;BME280;19656;50.096;20.014;2022-08-07T13:03:04;99643.40;;;24.40;47.17
33286;BME280;19656;50.096;20.014;2022-08-07T13:19:41;99632.59;;;24.62;46.18
33286;BME280;19656;50.096;20.014;2022-08-07T13:24:57;99627.86;;;24.70;45.98
33286;BME280;19656;50.096;20.014;2022-08-07T13:30:07;99620.55;;;24.92;45.63
33286;BME280;19656;50.096;20.014;2022-08-07T13:35:46;99617.27;;;25.00;45.17
33286;BME280;19656;50.096;20.014;2022-08-07T13:41:26;99608.11;;;24.97;44.96
33286;BME280;19656;50.096;20.014;2022-08-07T13:46:45;99603.95;;;25.40;45.12
33286;BME280;19656;50.096;20.014;2022-08-07T13:51:52;99594.29;;;26.03;44.96
33286;BME280;19656;50.096;20.014;2022-08-07T13:57:16;99583.51;;;26.57;44.04
33286;BME280;19656;50.096;20.014;2022-08-07T14:02:27;99574.13;;;26.82;43.17
33286;BME280;19656;50.096;20.014;2022-08-07T14:07:53;99573.20;;;27.02;42.57
33286;BME280;19656;50.096;20.014;2022-08-07T14:13:03;99571.14;;;27.14;42.10
33286;BME280;19656;50.096;20.014;2022-08-07T14:18:16;99565.29;;;27.21;41.45
33286;BME280;19656;50.096;20.014;2022-08-07T14:23:34;99561.75;;;27.07;41.11
33286;BME280;19656;50.096;20.014;2022-08-07T14:29:00;99554.52;;;27.10;40.92
33286;BME280;19656;50.096;20.014;2022-08-07T14:34:27;99550.48;;;26.98;40.42
33286;BME280;19656;50.096;20.014;2022-08-07T14:39:35;99556.71;;;26.62;39.97
33286;BME280;19656;50.096;20.014;2022-08-07T14:45:02;99555.15;;;26.33;40.12
33286;BME280;19656;50.096;20.014;2022-08-07T14:50:24;99549.09;;;26.19;40.08
33286;BME280;19656;50.096;20.014;2022-08-07T14:55:33;99541.44;;;26.13;39.87
33286;BME280;19656;50.096;20.014;2022-08-07T15:00:57;99537.98;;;26.01;39.76
33286;BME280;19656;50.096;20.014;2022-08-07T15:06:22;99532.45;;;25.88;39.58
33286;BME280;19656;50.096;20.014;2022-08-07T15:11:30;99527.39;;;25.79;39.32
33286;BME280;19656;50.096;20.014;2022-08-07T15:16:58;99531.60;;;25.68;39.79
33286;BME280;19656;50.096;20.014;2022-08-07T15:22:03;99526.13;;;25.66;39.69
33286;BME280;19656;50.096;20.014;2022-08-07T15:27:26;99524.83;;;25.59;39.78
33286;BME280;19656;50.096;20.014;2022-08-07T15:32:43;99520.77;;;25.47;39.80
33286;BME280;19656;50.096;20.014;2022-08-07T15:38:03;99520.71;;;25.31;39.76
33286;BME280;19656;50.096;20.014;2022-08-07T15:43:29;99523.77;;;25.18;39.73
33286;BME280;19656;50.096;20.014;2022-08-07T15:48:58;99511.74;;;25.07;39.74
33286;BME280;19656;50.096;20.014;2022-08-07T15:54:17;99511.45;;;25.01;39.76
33286;BME280;19656;50.096;20.014;2022-08-07T15:59:25;99504.97;;;24.98;39.96
33286;BME280;19656;50.096;20.014;2022-08-07T16:04:45;99501.69;;;24.92;39.63
33286;BME280;19656;50.096;20.014;2022-08-07T16:09:52;99503.86;;;24.84;39.43
33286;BME280;19656;50.096;20.014;2022-08-07T16:20:51;99501.73;;;24.67;39.71
33286;BME280;19656;50.096;20.014;2022-08-07T16:32:06;99497.75;;;24.54;39.74
33286;BME280;19656;50.096;20.014;2022-08-07T16:49:06;99497.52;;;24.36;39.50
33286;BME280;19656;50.096;20.014;2022-08-07T17:00:14;99499.14;;;24.19;39.61
33286;BME280;19656;50.096;20.014;2022-08-07T17:11:33;99500.67;;;24.07;40.24
33286;BME280;19656;50.096;20.014;2022-08-07T17:17:05;99500.88;;;24.00;40.08
33286;BME280;19656;50.096;20.014;2022-08-07T17:22:21;99500.20;;;23.92;40.59
33286;BME280;19656;50.096;20.014;2022-08-07T17:33:15;99506.92;;;23.72;40.99
33286;BME280;19656;50.096;20.014;2022-08-07T17:43:52;99503.09;;;23.54;41.55
33286;BME280;19656;50.096;20.014;2022-08-07T17:49:20;99505.35;;;23.46;41.64
33286;BME280;19656;50.096;20.014;2022-08-07T17:54:45;99512.33;;;23.33;41.57
33286;BME280;19656;50.096;20.014;2022-08-07T18:00:07;99514.96;;;23.24;42.05
33286;BME280;19656;50.096;20.014;2022-08-07T18:05:40;99520.59;;;23.14;41.88
33286;BME280;19656;50.096;20.014;2022-08-07T18:16:51;99527.63;;;22.92;42.02
33286;BME280;19656;50.096;20.014;2022-08-07T18:22:09;99532.73;;;22.89;42.22
33286;BME280;19656;50.096;20.014;2022-08-07T18:49:52;99549.23;;;22.79;42.55
33286;BME280;19656;50.096;20.014;2022-08-07T18:55:33;99550.44;;;22.64;42.24
33286;BME280;19656;50.096;20.014;2022-08-07T19:01:19;99556.81;;;22.39;42.19
33286;BME280;19656;50.096;20.014;2022-08-07T19:17:16;99557.83;;;21.92;42.52
33286;BME280;19656;50.096;20.014;2022-08-07T19:22:57;99567.06;;;21.79;42.64
33286;BME280;19656;50.096;20.014;2022-08-07T19:28:33;99564.40;;;21.64;42.91
33286;BME280;19656;50.096;20.014;2022-08-07T19:33:59;99569.31;;;21.49;43.14
33286;BME280;19656;50.096;20.014;2022-08-07T19:39:05;99571.77;;;21.37;43.41
33286;BME280;19656;50.096;20.014;2022-08-07T19:44:12;99570.88;;;21.28;43.51
33286;BME280;19656;50.096;20.014;2022-08-07T19:49:23;99573.06;;;21.14;43.63
33286;BME280;19656;50.096;20.014;2022-08-07T19:54:47;99572.27;;;21.00;43.92
33286;BME280;19656;50.096;20.014;2022-08-07T20:00:03;99578.07;;;20.87;44.11
33286;BME280;19656;50.096;20.014;2022-08-07T20:05:15;99580.02;;;20.78;44.20
33286;BME280;19656;50.096;20.014;2022-08-07T20:10:29;99581.95;;;20.75;44.29
33286;BME280;19656;50.096;20.014;2022-08-07T20:15:54;99580.38;;;20.78;44.33
33286;BME280;19656;50.096;20.014;2022-08-07T20:21:03;99588.85;;;20.72;44.10
33286;BME280;19656;50.096;20.014;2022-08-07T20:26:26;99589.21;;;20.69;44.27
33286;BME280;19656;50.096;20.014;2022-08-07T20:31:34;99587.62;;;20.67;44.25
33286;BME280;19656;50.096;20.014;2022-08-07T20:36:41;99586.40;;;20.62;44.37
33286;BME280;19656;50.096;20.014;2022-08-07T20:41:53;99591.90;;;20.55;44.36
33286;BME280;19656;50.096;20.014;2022-08-07T20:46:57;99602.27;;;20.46;44.42
33286;BME280;19656;50.096;20.014;2022-08-07T20:52:20;99605.02;;;20.37;44.58
33286;BME280;19656;50.096;20.014;2022-08-07T20:57:46;99608.59;;;20.27;44.64
33286;BME280;19656;50.096;20.014;2022-08-07T21:03:05;99608.67;;;20.22;44.90
33286;BME280;19656;50.096;20.014;2022-08-07T21:08:13;99609.55;;;20.21;44.97
33286;BME280;19656;50.096;20.014;2022-08-07T21:13:18;99611.55;;;20.24;44.98
33286;BME280;19656;50.096;20.014;2022-08-07T21:18:31;99610.09;;;20.24;44.99
33286;BME280;19656;50.096;20.014;2022-08-07T21:24:06;99615.18;;;20.24;45.02
33286;BME280;19656;50.096;20.014;2022-08-07T21:29:20;99612.73;;;20.25;44.99
33286;BME280;19656;50.096;20.014;2022-08-07T21:34:36;99610.55;;;20.24;45.01
33286;BME280;19656;50.096;20.014;2022-08-07T21:40:22;99610.89;;;20.20;45.03
33286;BME280;19656;50.096;20.014;2022-08-07T21:45:43;99608.95;;;20.17;45.04
33286;BME280;19656;50.096;20.014;2022-08-07T21:51:20;99609.50;;;20.12;45.21
33286;BME280;19656;50.096;20.014;2022-08-07T22:01:58;99611.31;;;19.99;45.28
33286;BME280;19656;50.096;20.014;2022-08-07T22:07:20;99614.16;;;19.94;45.32
33286;BME280;19656;50.096;20.014;2022-08-07T22:12:51;99611.77;;;19.85;45.33
33286;BME280;19656;50.096;20.014;2022-08-07T22:17:59;99613.38;;;19.81;45.33
33286;BME280;19656;50.096;20.014;2022-08-07T22:23:14;99614.02;;;19.80;45.45
33286;BME280;19656;50.096;20.014;2022-08-07T22:28:28;99615.61;;;19.75;45.43
33286;BME280;19656;50.096;20.014;2022-08-07T22:33:46;99614.17;;;19.67;45.51
33286;BME280;19656;50.096;20.014;2022-08-07T22:39:08;99613.50;;;19.61;45.55
33286;BME280;19656;50.096;20.014;2022-08-07T22:44:20;99607.35;;;19.54;45.58
33286;BME280;19656;50.096;20.014;2022-08-07T22:49:39;99602.95;;;19.47;45.56
33286;BME280;19656;50.096;20.014;2022-08-07T23:00:32;99607.20;;;19.34;45.66
33286;BME280;19656;50.096;20.014;2022-08-07T23:28:19;99595.40;;;19.00;46.09
33286;BME280;19656;50.096;20.014;2022-08-07T23:33:50;99592.23;;;18.96;46.11
33286;BME280;19656;50.096;20.014;2022-08-07T23:39:32;99592.87;;;18.92;46.12
33286;BME280;19656;50.096;20.014;2022-08-07T23:45:00;99592.45;;;18.85;46.21
33286;BME280;19656;50.096;20.014;2022-08-07T23:55:34;99593.27;;;18.69;46.37
